createdAt,value
2018-03-19T00:01:32.920Z,-2.10
2018-03-19T00:04:06.313Z,-2.00
2018-03-19T00:06:39.140Z,-2.10
2018-03-19T00:09:12.489Z,-2.00
2018-03-19T00:11:45.285Z,-2.00
2018-03-19T00:14:18.034Z,-2.10
2018-03-19T00:16:52.020Z,-1.90
2018-03-19T00:19:24.838Z,-2.20
2018-03-19T00:21:58.200Z,-2.00
2018-03-19T00:24:30.637Z,-2.00
2018-03-19T00:27:03.259Z,-2.10
2018-03-19T00:29:36.389Z,-2.10
2018-03-19T00:32:09.396Z,-2.10
2018-03-19T00:34:41.949Z,-1.90
2018-03-19T00:37:14.395Z,-2.10
2018-03-19T00:39:46.972Z,-2.10
2018-03-19T00:42:20.353Z,-1.90
2018-03-19T00:44:52.992Z,-2.20
2018-03-19T00:47:25.648Z,-2.00
2018-03-19T00:49:58.961Z,-2.10
2018-03-19T00:52:32.345Z,-2.00
2018-03-19T00:55:04.963Z,-2.30
2018-03-19T00:57:37.567Z,-1.90
2018-03-19T01:00:11.026Z,-2.20
2018-03-19T01:02:44.558Z,-2.00
2018-03-19T01:05:17.594Z,-2.20
2018-03-19T01:07:50.488Z,-2.10
2018-03-19T01:10:23.383Z,-2.00
2018-03-19T01:12:56.302Z,-2.20
2018-03-19T01:15:28.716Z,-2.10
2018-03-19T01:18:02.032Z,-2.20
2018-03-19T01:20:34.727Z,-2.00
2018-03-19T01:23:08.085Z,-1.90
2018-03-19T01:25:40.586Z,-2.10
2018-03-19T01:28:13.846Z,-2.00
2018-03-19T01:30:46.460Z,-2.00
2018-03-19T01:33:20.527Z,-2.30
2018-03-19T01:35:53.199Z,-2.10
2018-03-19T01:38:26.570Z,-2.10
2018-03-19T01:40:59.299Z,-2.20
2018-03-19T01:43:33.431Z,-2.20
2018-03-19T01:46:06.182Z,-2.20
2018-03-19T01:48:38.581Z,-2.30
2018-03-19T01:51:11.119Z,-2.20
2018-03-19T01:53:44.278Z,-2.30
2018-03-19T01:56:16.712Z,-2.00
2018-03-19T01:58:50.102Z,-2.00
2018-03-19T02:01:23.035Z,-2.40
2018-03-19T02:03:57.022Z,-2.30
2018-03-19T02:06:30.045Z,-2.20
2018-03-19T02:09:03.242Z,-2.40
2018-03-19T02:11:36.806Z,-2.10
2018-03-19T02:14:10.608Z,-2.50
2018-03-19T02:16:43.161Z,-2.40
2018-03-19T02:19:16.359Z,-2.20
2018-03-19T02:21:49.166Z,-2.40
2018-03-19T02:24:22.536Z,-2.40
2018-03-19T02:26:55.041Z,-2.20
2018-03-19T02:29:28.352Z,-2.50
2018-03-19T02:32:02.523Z,-2.20
2018-03-19T02:34:36.179Z,-2.30
2018-03-19T02:37:09.001Z,-2.50
2018-03-19T02:39:42.348Z,-2.20
2018-03-19T02:42:14.947Z,-2.10
2018-03-19T02:44:47.432Z,-2.00
2018-03-19T02:47:20.750Z,-2.40
2018-03-19T02:49:53.357Z,-2.40
2018-03-19T02:52:26.714Z,-2.30
2018-03-19T02:54:59.247Z,-2.30
2018-03-19T02:57:31.693Z,-2.50
2018-03-19T03:00:05.078Z,-2.50
2018-03-19T03:02:37.503Z,-2.20
2018-03-19T03:05:10.638Z,-2.50
2018-03-19T03:07:43.340Z,-2.50
2018-03-19T03:10:17.245Z,-2.50
2018-03-19T03:12:50.812Z,-2.50
2018-03-19T03:15:24.251Z,-2.50
2018-03-19T03:17:56.843Z,-2.60
2018-03-19T03:20:30.055Z,-2.40
2018-03-19T03:23:02.491Z,-2.40
2018-03-19T03:25:35.123Z,-2.40
2018-03-19T03:28:07.712Z,-2.60
2018-03-19T03:30:40.224Z,-2.60
2018-03-19T03:33:12.784Z,-2.50
2018-03-19T03:35:45.143Z,-2.70
2018-03-19T03:38:18.407Z,-2.60
2018-03-19T03:40:51.156Z,-2.60
2018-03-19T03:43:23.683Z,-2.80
2018-03-19T03:45:56.989Z,-2.50
2018-03-19T03:48:30.313Z,-2.60
2018-03-19T03:51:03.789Z,-2.70
2018-03-19T03:53:36.496Z,-2.50
2018-03-19T03:56:09.030Z,-2.50
2018-03-19T03:58:43.124Z,-2.50
2018-03-19T04:01:15.691Z,-2.60
2018-03-19T04:03:48.115Z,-2.60
2018-03-19T04:06:21.356Z,-2.40
2018-03-19T04:08:54.124Z,-2.60
2018-03-19T04:11:28.154Z,-2.50
2018-03-19T04:14:01.229Z,-2.80
2018-03-19T04:16:34.414Z,-2.80
2018-03-19T04:19:07.675Z,-2.80
2018-03-19T04:21:40.443Z,-2.70
2018-03-19T04:24:12.991Z,-2.80
2018-03-19T04:26:45.421Z,-2.70
2018-03-19T04:29:17.995Z,-2.70
2018-03-19T04:31:50.520Z,-2.80
2018-03-19T04:34:23.030Z,-2.80
2018-03-19T04:36:55.601Z,-2.80
2018-03-19T04:39:28.755Z,-2.70
2018-03-19T04:42:01.826Z,-2.90
2018-03-19T04:44:35.136Z,-2.60
2018-03-19T04:47:07.705Z,-2.70
2018-03-19T04:49:41.013Z,-2.90
2018-03-19T04:52:13.483Z,-2.70
2018-03-19T04:54:47.639Z,-2.50
2018-03-19T04:57:21.045Z,-2.70
2018-03-19T04:59:53.810Z,-2.80
2018-03-19T05:02:26.980Z,-2.70
2018-03-19T05:05:00.497Z,-2.60
2018-03-19T05:07:33.112Z,-2.60
2018-03-19T05:10:05.763Z,-2.70
2018-03-19T05:12:38.177Z,-2.70
2018-03-19T05:15:10.757Z,-2.70
2018-03-19T05:17:43.178Z,-2.60
2018-03-19T05:20:15.585Z,-2.70
2018-03-19T05:22:48.049Z,-2.70
2018-03-19T05:25:21.340Z,-2.70
2018-03-19T05:27:54.044Z,-2.80
2018-03-19T05:30:26.621Z,-2.60
2018-03-19T05:32:59.888Z,-2.70
2018-03-19T05:35:32.470Z,-2.70
2018-03-19T05:38:04.965Z,-2.70
2018-03-19T05:40:37.655Z,-2.80
2018-03-19T05:43:10.908Z,-2.80
2018-03-19T05:45:43.656Z,-2.90
2018-03-19T05:48:16.122Z,-2.70
2018-03-19T05:50:48.579Z,-2.90
2018-03-19T05:53:21.145Z,-2.80
2018-03-19T05:55:53.792Z,-2.70
2018-03-19T05:58:27.136Z,-3.00
2018-03-19T06:00:59.659Z,-2.80
2018-03-19T06:03:33.025Z,-2.70
2018-03-19T06:06:05.609Z,-2.80
2018-03-19T06:08:38.763Z,-2.80
2018-03-19T06:11:11.395Z,-2.90
2018-03-19T06:13:43.856Z,-2.50
2018-03-19T06:16:16.339Z,-2.80
2018-03-19T06:18:49.674Z,-2.80
2018-03-19T06:21:22.252Z,-2.80
2018-03-19T06:23:55.581Z,-2.80
2018-03-19T06:26:28.843Z,-2.90
2018-03-19T06:29:01.733Z,-2.70
2018-03-19T06:31:35.996Z,-2.50
2018-03-19T06:34:08.391Z,-2.70
2018-03-19T06:36:41.100Z,-2.80
2018-03-19T06:39:14.457Z,-2.80
2018-03-19T06:41:47.370Z,-2.60
2018-03-19T06:44:20.559Z,-2.50
2018-03-19T06:46:53.163Z,-2.70
2018-03-19T06:49:26.653Z,-2.70
2018-03-19T06:52:00.784Z,-2.60
2018-03-19T06:54:33.474Z,-2.30
2018-03-19T06:57:06.010Z,-2.60
2018-03-19T06:59:38.476Z,-2.60
2018-03-19T07:02:10.952Z,-2.70
2018-03-19T07:04:44.338Z,-2.50
2018-03-19T07:07:17.002Z,-2.70
2018-03-19T07:09:49.964Z,-2.50
2018-03-19T07:12:23.515Z,-2.90
2018-03-19T07:14:57.521Z,-2.60
2018-03-19T07:17:30.216Z,-2.70
2018-03-19T07:20:04.461Z,-2.60
2018-03-19T07:22:37.896Z,-2.40
2018-03-19T07:25:10.471Z,-2.40
2018-03-19T07:27:43.774Z,-2.60
2018-03-19T07:30:17.779Z,-2.50
2018-03-19T07:32:51.122Z,-2.50
2018-03-19T07:35:23.534Z,-2.40
2018-03-19T07:37:57.692Z,-2.50
2018-03-19T07:40:30.325Z,-2.60
2018-03-19T07:43:02.964Z,-2.40
2018-03-19T07:45:35.455Z,-2.50
2018-03-19T07:48:08.866Z,-2.60
2018-03-19T07:50:41.588Z,-2.60
2018-03-19T07:53:14.000Z,-2.30
2018-03-19T07:55:47.364Z,-2.50
2018-03-19T07:58:19.831Z,-2.20
2018-03-19T08:00:54.081Z,-2.40
2018-03-19T08:03:26.740Z,-2.20
2018-03-19T08:05:59.204Z,-2.30
2018-03-19T08:08:31.841Z,-2.10
2018-03-19T08:11:04.251Z,-2.10
2018-03-19T08:13:37.480Z,-2.10
2018-03-19T08:16:10.311Z,-2.00
2018-03-19T08:18:42.912Z,-2.10
2018-03-19T08:21:15.555Z,-2.00
2018-03-19T08:23:48.905Z,-1.90
2018-03-19T08:26:22.422Z,-2.00
2018-03-19T08:28:55.193Z,-1.90
2018-03-19T08:31:27.654Z,-2.10
2018-03-19T08:34:00.130Z,-2.00
2018-03-19T08:36:32.643Z,-2.00
2018-03-19T08:39:06.097Z,-2.00
2018-03-19T08:41:38.633Z,-2.20
2018-03-19T08:44:12.734Z,-1.90
2018-03-19T08:46:45.418Z,-2.00
2018-03-19T08:49:17.874Z,-1.90
2018-03-19T08:51:50.460Z,-2.20
2018-03-19T08:54:22.807Z,-2.10
2018-03-19T08:56:55.299Z,-2.10
2018-03-19T08:59:28.054Z,-2.30
2018-03-19T09:02:00.568Z,-2.10
2018-03-19T09:04:33.091Z,-2.00
2018-03-19T09:07:05.506Z,-2.10
2018-03-19T09:09:38.065Z,-2.20
2018-03-19T09:12:10.497Z,-2.00
2018-03-19T09:14:43.103Z,-1.90
2018-03-19T09:17:17.151Z,-2.00
2018-03-19T09:19:49.987Z,-1.80
2018-03-19T09:22:22.396Z,-1.90
2018-03-19T09:24:55.742Z,-1.90
2018-03-19T09:27:28.553Z,-1.80
2018-03-19T09:30:00.987Z,-1.90
2018-03-19T09:32:33.627Z,-1.60
2018-03-19T09:35:07.755Z,-1.70
2018-03-19T09:37:41.156Z,-1.60
2018-03-19T09:40:13.968Z,-1.60
2018-03-19T09:42:46.369Z,-1.50
2018-03-19T09:45:18.827Z,-1.60
2018-03-19T09:47:51.452Z,-1.70
2018-03-19T09:50:24.750Z,-1.70
2018-03-19T09:52:58.215Z,-1.50
2018-03-19T09:55:30.631Z,-1.50
2018-03-19T09:58:03.137Z,-1.40
2018-03-19T10:00:36.347Z,-1.50
2018-03-19T10:03:08.962Z,-1.30
2018-03-19T10:05:42.290Z,-1.30
2018-03-19T10:08:15.118Z,-1.30
2018-03-19T10:10:48.476Z,-1.40
2018-03-19T10:13:21.008Z,-1.20
2018-03-19T10:15:53.480Z,-1.30
2018-03-19T10:18:26.950Z,-1.50
2018-03-19T10:20:59.311Z,-1.50
2018-03-19T10:23:32.539Z,-1.30
2018-03-19T10:26:05.296Z,-1.10
2018-03-19T10:28:37.626Z,-1.20
2018-03-19T10:31:10.330Z,-1.00
2018-03-19T10:33:42.736Z,-1.00
2018-03-19T10:36:15.206Z,-0.80
2018-03-19T10:38:47.544Z,-1.30
2018-03-19T10:41:20.936Z,-1.10
2018-03-19T10:43:53.438Z,-1.10
2018-03-19T10:46:26.019Z,-0.90
2018-03-19T10:48:58.532Z,-1.00
2018-03-19T10:51:31.045Z,-1.20
2018-03-19T10:54:04.366Z,-1.00
2018-03-19T10:56:37.004Z,-0.90
2018-03-19T10:59:09.480Z,-0.80
2018-03-19T11:01:42.899Z,-0.90
2018-03-19T11:04:16.179Z,-0.80
2018-03-19T11:09:49.821Z,-0.90
2018-03-19T11:12:23.764Z,-1.10
2018-03-19T11:14:56.367Z,-1.20
2018-03-19T11:17:29.775Z,-0.80
2018-03-19T11:20:03.183Z,-1.10
2018-03-19T11:22:35.764Z,-1.40
2018-03-19T11:25:09.015Z,-1.10
2018-03-19T11:27:42.463Z,-1.10
2018-03-19T11:30:14.808Z,-1.00
2018-03-19T11:32:47.354Z,-1.00
2018-03-19T11:35:19.754Z,-0.90
2018-03-19T11:37:53.077Z,-1.00
2018-03-19T11:40:26.657Z,-0.90
2018-03-19T11:42:59.923Z,-0.80
2018-03-19T11:45:33.482Z,-0.70
2018-03-19T11:48:06.202Z,-0.70
2018-03-19T11:50:39.440Z,-0.70
2018-03-19T11:53:22.740Z,-0.70
2018-03-19T11:55:55.248Z,-0.80
2018-03-19T11:58:27.755Z,-0.80
2018-03-19T12:01:00.243Z,-0.90
2018-03-19T12:03:33.556Z,-0.70
2018-03-19T12:06:06.783Z,-1.00
2018-03-19T12:08:39.224Z,-0.90
2018-03-19T12:11:11.704Z,-0.80
2018-03-19T12:13:44.286Z,-1.00
2018-03-19T12:16:17.422Z,-0.90
2018-03-19T12:18:50.335Z,-0.70
2018-03-19T12:21:23.865Z,-1.00
2018-03-19T12:23:58.019Z,-0.90
2018-03-19T12:26:41.540Z,-0.80
2018-03-19T12:29:14.245Z,-0.70
2018-03-19T12:31:46.766Z,-0.50
2018-03-19T12:34:20.236Z,-0.60
2018-03-19T12:36:53.719Z,-0.50
2018-03-19T12:39:26.427Z,-0.60
2018-03-19T12:41:58.804Z,-0.70
2018-03-19T12:44:32.021Z,-0.70
2018-03-19T12:47:04.757Z,-0.80
2018-03-19T12:49:37.472Z,-0.80
2018-03-19T12:52:10.731Z,-0.70
2018-03-19T12:54:43.956Z,-0.60
2018-03-19T12:57:16.472Z,-0.60
2018-03-19T12:59:49.137Z,-0.70
2018-03-19T13:02:22.511Z,-0.50
2018-03-19T13:04:55.125Z,-0.40
2018-03-19T13:07:28.645Z,-0.30
2018-03-19T13:10:01.421Z,-0.40
2018-03-19T13:12:33.944Z,-0.10
2018-03-19T13:15:06.548Z,-0.10
2018-03-19T13:17:40.029Z,0.10
2018-03-19T13:20:13.315Z,0.20
2018-03-19T13:22:46.586Z,-0.10
2018-03-19T13:25:19.368Z,0.20
2018-03-19T13:27:52.035Z,0.20
2018-03-19T13:30:25.445Z,0.10
2018-03-19T13:32:58.844Z,-0.10
2018-03-19T13:35:31.690Z,-0.10
2018-03-19T13:38:04.082Z,0.10
2018-03-19T13:40:37.399Z,0.00
2018-03-19T13:43:09.998Z,0.20
2018-03-19T13:45:42.549Z,0.20
2018-03-19T13:48:15.759Z,0.30
2018-03-19T13:50:48.460Z,0.20
2018-03-19T13:53:22.474Z,0.20
2018-03-19T13:55:56.133Z,0.50
2018-03-19T13:58:28.997Z,0.40
2018-03-19T14:01:01.486Z,0.50
2018-03-19T14:03:34.014Z,0.30
2018-03-19T14:06:06.541Z,0.50
2018-03-19T14:08:39.668Z,0.50
2018-03-19T14:11:12.517Z,0.20
2018-03-19T14:13:46.369Z,0.40
2018-03-19T14:16:20.215Z,0.10
2018-03-19T14:18:52.964Z,-0.10
2018-03-19T14:21:25.393Z,0.30
2018-03-19T14:23:58.813Z,0.20
2018-03-19T14:26:31.958Z,0.20
2018-03-19T14:29:04.607Z,0.10
2018-03-19T14:31:38.039Z,-0.10
2018-03-19T14:34:11.505Z,-0.10
2018-03-19T14:36:45.196Z,-0.20
2018-03-19T14:39:17.818Z,-0.20
2018-03-19T14:41:50.472Z,0.00
2018-03-19T14:44:22.875Z,-0.20
2018-03-19T14:46:56.286Z,0.00
2018-03-19T14:49:29.534Z,-0.20
2018-03-19T14:52:02.266Z,-0.20
2018-03-19T14:54:35.528Z,-0.10
2018-03-19T14:57:08.993Z,-0.30
2018-03-19T14:59:41.377Z,-0.30
2018-03-19T15:02:13.944Z,-0.30
2018-03-19T15:04:46.493Z,-0.30
2018-03-19T15:07:19.876Z,-0.40
2018-03-19T15:09:52.453Z,-0.40
2018-03-19T15:12:24.966Z,-0.20
2018-03-19T15:14:58.171Z,-0.30
2018-03-19T15:17:31.043Z,-0.30
2018-03-19T15:20:04.177Z,-0.40
2018-03-19T15:22:37.693Z,-0.70
2018-03-19T15:25:11.254Z,-0.70
2018-03-19T15:27:44.291Z,-0.60
2018-03-19T15:30:17.287Z,-0.70
2018-03-19T15:32:49.779Z,-0.60
2018-03-19T15:35:22.284Z,-0.80
2018-03-19T15:37:54.723Z,-0.60
2018-03-19T15:40:27.581Z,-0.80
2018-03-19T15:43:00.315Z,-0.90
2018-03-19T15:45:33.647Z,-0.90
2018-03-19T15:48:06.481Z,-1.00
2018-03-19T15:50:39.151Z,-1.00
2018-03-19T15:53:11.545Z,-0.90
2018-03-19T15:55:45.023Z,-1.20
2018-03-19T15:58:17.745Z,-1.30
2018-03-19T16:00:50.328Z,-1.30
2018-03-19T16:03:23.092Z,-1.30
2018-03-19T16:05:55.414Z,-1.50
2018-03-19T16:08:27.974Z,-1.50
2018-03-19T16:11:01.363Z,-1.50
2018-03-19T16:13:33.866Z,-1.40
2018-03-19T16:16:07.198Z,-1.50
2018-03-19T16:18:40.081Z,-1.40
2018-03-19T16:21:14.304Z,-1.30
2018-03-19T16:23:47.860Z,-1.30
2018-03-19T16:26:21.669Z,-1.50
2018-03-19T16:28:55.185Z,-1.60
2018-03-19T16:31:28.001Z,-1.50
2018-03-19T16:34:00.504Z,-1.60
2018-03-19T16:36:33.057Z,-1.70
2018-03-19T16:39:05.831Z,-1.50
2018-03-19T16:41:38.508Z,-1.80
2018-03-19T16:44:12.102Z,-1.70
2018-03-19T16:46:46.018Z,-1.80
2018-03-19T16:49:18.709Z,-1.90
2018-03-19T16:51:52.035Z,-1.60
2018-03-19T16:54:25.400Z,-1.60
2018-03-19T16:56:58.548Z,-1.80
2018-03-19T16:59:31.075Z,-1.60
2018-03-19T17:02:03.685Z,-1.80
2018-03-19T17:04:36.258Z,-1.80
2018-03-19T17:07:10.341Z,-1.80
2018-03-19T17:09:43.768Z,-2.00
2018-03-19T17:12:16.569Z,-1.90
2018-03-19T17:14:49.763Z,-1.80
2018-03-19T17:17:23.092Z,-1.80
2018-03-19T17:19:56.494Z,-2.00
2018-03-19T17:22:29.418Z,-2.00
2018-03-19T17:25:01.905Z,-1.80
2018-03-19T17:27:35.284Z,-1.70
2018-03-19T17:30:08.895Z,-1.70
2018-03-19T17:32:41.409Z,-1.90
2018-03-19T17:35:14.105Z,-1.90
2018-03-19T17:37:47.372Z,-1.90
2018-03-19T17:40:20.637Z,-1.80
2018-03-19T17:42:54.747Z,-1.80
2018-03-19T17:45:28.415Z,-2.00
2018-03-19T17:48:01.807Z,-2.00
2018-03-19T17:50:35.052Z,-2.20
2018-03-19T17:53:07.452Z,-2.10
2018-03-19T17:55:40.143Z,-2.00
2018-03-19T17:58:14.243Z,-1.90
2018-03-19T18:00:47.138Z,-1.90
2018-03-19T18:03:19.657Z,-2.10
2018-03-19T18:05:52.949Z,-2.00
2018-03-19T18:08:25.550Z,-2.00
2018-03-19T18:10:58.873Z,-2.20
2018-03-19T18:13:32.355Z,-2.10
2018-03-19T18:16:05.101Z,-2.20
2018-03-19T18:18:37.840Z,-1.90
2018-03-19T18:21:11.017Z,-2.10
2018-03-19T18:23:46.156Z,-2.10
2018-03-19T18:26:20.337Z,-2.10
2018-03-19T18:28:54.486Z,-2.10
2018-03-19T18:31:27.277Z,-2.20
2018-03-19T18:34:03.356Z,-2.20
2018-03-19T18:36:36.094Z,-2.10
2018-03-19T18:39:09.518Z,-2.10
2018-03-19T18:41:42.858Z,-2.30
2018-03-19T18:44:15.593Z,-2.20
2018-03-19T18:46:49.200Z,-2.10
2018-03-19T18:49:23.387Z,-2.20
2018-03-19T18:51:56.162Z,-2.20
2018-03-19T18:54:30.392Z,-2.40
2018-03-19T18:57:03.810Z,-2.30
2018-03-19T18:59:37.369Z,-2.20
2018-03-19T19:02:11.251Z,-2.20
2018-03-19T19:04:44.367Z,-2.50
2018-03-19T19:07:17.850Z,-2.20
2018-03-19T19:09:51.062Z,-2.50
2018-03-19T19:12:25.054Z,-2.40
2018-03-19T19:14:58.294Z,-2.60
2018-03-19T19:17:31.138Z,-2.20
2018-03-19T19:20:04.603Z,-2.30
2018-03-19T19:22:37.758Z,-2.50
2018-03-19T19:25:11.542Z,-2.30
2018-03-19T19:27:45.787Z,-2.30
2018-03-19T19:30:18.428Z,-2.20
2018-03-19T19:32:51.806Z,-2.40
2018-03-19T19:35:25.262Z,-2.20
2018-03-19T19:37:57.821Z,-2.50
2018-03-19T19:40:30.272Z,-2.20
2018-03-19T19:43:02.794Z,-2.30
2018-03-19T19:45:36.991Z,-2.40
2018-03-19T19:48:12.431Z,-2.30
2018-03-19T19:50:45.787Z,-2.20
2018-03-19T19:53:18.484Z,-2.20
2018-03-19T19:55:52.740Z,-2.30
2018-03-19T19:58:27.141Z,-2.50
2018-03-19T20:01:00.319Z,-2.10
2018-03-19T20:03:32.916Z,-2.30
2018-03-19T20:06:05.575Z,-2.40
2018-03-19T20:08:38.271Z,-2.20
2018-03-19T20:11:11.740Z,-2.10
2018-03-19T20:13:44.279Z,-2.30
2018-03-19T20:16:17.895Z,-2.20
2018-03-19T20:18:51.338Z,-2.20
2018-03-19T20:21:25.509Z,-2.10
2018-03-19T20:23:58.652Z,-2.40
2018-03-19T20:26:32.031Z,-2.10
2018-03-19T20:29:05.412Z,-2.10
2018-03-19T20:31:38.811Z,-2.10
2018-03-19T20:34:11.437Z,-2.40
2018-03-19T20:36:44.703Z,-2.40
2018-03-19T20:39:19.436Z,-2.40
2018-03-19T20:41:52.822Z,-2.40
2018-03-19T20:44:26.940Z,-2.40
2018-03-19T20:46:59.618Z,-2.30
2018-03-19T20:49:32.266Z,-2.30
2018-03-19T20:52:05.443Z,-2.40
2018-03-19T20:54:38.016Z,-2.50
2018-03-19T20:57:10.663Z,-2.40
2018-03-19T20:59:44.040Z,-2.50
2018-03-19T21:02:18.824Z,-2.20
2018-03-19T21:04:52.517Z,-2.40
2018-03-19T21:07:25.533Z,-2.50
2018-03-19T21:09:58.836Z,-2.10
2018-03-19T21:12:33.676Z,-2.60
2018-03-19T21:15:06.731Z,-2.30
2018-03-19T21:17:39.430Z,-2.40
2018-03-19T21:20:12.112Z,-2.10
2018-03-19T21:22:45.538Z,-2.10
2018-03-19T21:25:18.833Z,-2.20
2018-03-19T21:27:52.730Z,-2.20
2018-03-19T21:30:25.360Z,-2.20
2018-03-19T21:32:58.598Z,-2.20
2018-03-19T21:35:31.766Z,-2.40
2018-03-19T21:38:04.222Z,-2.40
2018-03-19T21:40:36.833Z,-2.40
2018-03-19T21:43:09.404Z,-2.40
2018-03-19T21:45:42.054Z,-2.20
2018-03-19T21:48:14.713Z,-2.30
2018-03-19T21:50:47.258Z,-2.40
2018-03-19T21:53:20.571Z,-2.50
2018-03-19T21:55:53.753Z,-2.30
2018-03-19T21:58:27.537Z,-2.40
2018-03-19T22:01:00.092Z,-2.20
2018-03-19T22:03:32.734Z,-2.20
2018-03-19T22:06:05.267Z,-2.40
2018-03-19T22:08:38.727Z,-2.20
2018-03-19T22:11:11.356Z,-2.30
2018-03-19T22:13:44.663Z,-2.20
2018-03-19T22:16:17.123Z,-2.30
2018-03-19T22:18:49.688Z,-2.10
2018-03-19T22:21:22.327Z,-2.30
2018-03-19T22:23:55.041Z,-2.40
2018-03-19T22:26:28.319Z,-2.30
2018-03-19T22:29:00.990Z,-2.90
2018-03-19T22:31:33.384Z,-2.30
2018-03-19T22:34:06.909Z,-2.40
2018-03-19T22:36:39.741Z,-2.50
2018-03-19T22:39:13.089Z,-2.50
2018-03-19T22:41:46.091Z,-2.30
2018-03-19T22:44:18.616Z,-2.50
2018-03-19T22:46:51.106Z,-2.40
2018-03-19T22:49:24.618Z,-2.50
2018-03-19T22:51:57.323Z,-2.60
2018-03-19T22:54:29.735Z,-2.60
2018-03-19T22:57:02.273Z,-2.70
2018-03-19T22:59:34.862Z,-2.60
2018-03-19T23:02:07.332Z,-2.60
2018-03-19T23:04:56.062Z,-2.50
2018-03-19T23:07:28.704Z,-2.50
2018-03-19T23:10:02.373Z,-2.60
2018-03-19T23:12:35.319Z,-2.60
2018-03-19T23:15:08.612Z,-2.50
2018-03-19T23:17:41.086Z,-2.50
2018-03-19T23:20:13.593Z,-2.60
2018-03-19T23:22:46.823Z,-2.70
2018-03-19T23:25:19.524Z,-2.60
2018-03-19T23:27:52.029Z,-2.70
2018-03-19T23:30:24.464Z,-2.50
2018-03-19T23:32:57.115Z,-2.70
2018-03-19T23:35:30.306Z,-2.50
2018-03-19T23:38:02.796Z,-2.70
2018-03-19T23:40:36.957Z,-2.50
2018-03-19T23:43:09.723Z,-2.50
2018-03-19T23:45:42.153Z,-2.30
2018-03-19T23:48:14.594Z,-2.60
2018-03-19T23:50:47.228Z,-2.50
2018-03-19T23:53:19.750Z,-2.50
2018-03-19T23:55:52.181Z,-2.70
2018-03-19T23:58:25.487Z,-2.70
